createdAt,value
2022-11-16T00:01:34.651Z,14.32
2022-11-16T00:06:36.791Z,15.05
2022-11-16T00:11:38.401Z,15.63
2022-11-16T00:16:40.624Z,15.23
2022-11-16T00:21:42.135Z,15.88
2022-11-16T00:26:44.082Z,16.63
2022-11-16T00:31:46.572Z,16.10
2022-11-16T00:36:48.153Z,16.52
2022-11-16T00:41:49.932Z,17.13
2022-11-16T00:46:51.319Z,17.65
2022-11-16T00:51:52.715Z,17.17
2022-11-16T00:56:54.110Z,16.83
2022-11-16T01:01:55.804Z,17.63
2022-11-16T01:06:57.497Z,16.48
2022-11-16T01:12:11.048Z,15.52
2022-11-16T01:17:13.958Z,16.42
2022-11-16T01:22:15.399Z,17.40
2022-11-16T01:27:16.787Z,17.50
2022-11-16T01:32:18.156Z,17.95
2022-11-16T01:37:19.992Z,18.98
2022-11-16T01:42:24.720Z,20.42
2022-11-16T01:47:26.194Z,15.35
2022-11-16T01:52:31.496Z,17.20
2022-11-16T01:57:38.036Z,17.05
2022-11-16T02:08:05.719Z,18.50
2022-11-16T02:13:18.109Z,16.57
2022-11-16T02:18:55.857Z,15.90
2022-11-16T02:24:15.534Z,16.65
2022-11-16T02:29:16.844Z,17.08
2022-11-16T02:34:21.179Z,15.38
2022-11-16T02:39:27.144Z,16.35
2022-11-16T02:44:36.121Z,16.40
2022-11-16T02:49:44.124Z,17.25
2022-11-16T02:54:45.479Z,16.80
2022-11-16T02:59:50.758Z,17.85
2022-11-16T03:05:01.559Z,18.65
2022-11-16T03:10:03.665Z,19.48
2022-11-16T03:15:09.742Z,17.55
2022-11-16T03:20:18.205Z,17.15
2022-11-16T03:25:22.531Z,18.27
2022-11-16T03:30:27.598Z,19.42
2022-11-16T03:35:36.650Z,17.77
2022-11-16T03:40:40.157Z,19.52
2022-11-16T03:45:42.360Z,17.83
2022-11-16T03:50:44.071Z,17.73
2022-11-16T03:55:49.604Z,18.98
2022-11-16T04:00:51.560Z,18.40
2022-11-16T04:06:11.650Z,9.50
2022-11-16T04:11:37.411Z,3.97
2022-11-16T04:16:57.088Z,1.95
2022-11-16T04:22:23.996Z,2.20
2022-11-16T04:27:48.129Z,2.50
2022-11-16T04:33:08.583Z,2.78
2022-11-16T04:38:10.164Z,2.65
2022-11-16T04:43:11.562Z,2.47
2022-11-16T04:48:14.607Z,2.47
2022-11-16T04:53:16.003Z,2.80
2022-11-16T04:58:17.404Z,2.38
2022-11-16T05:03:18.989Z,3.50
2022-11-16T05:08:20.347Z,3.25
2022-11-16T05:13:21.757Z,3.28
2022-11-16T05:18:23.090Z,5.45
2022-11-16T05:23:43.129Z,3.42
2022-11-16T05:28:44.508Z,4.25
2022-11-16T05:33:46.232Z,4.63
2022-11-16T05:38:47.699Z,5.35
2022-11-16T05:43:49.236Z,6.05
2022-11-16T05:48:52.166Z,8.10
2022-11-16T05:53:53.666Z,8.98
2022-11-16T05:58:55.448Z,10.90
2022-11-16T06:04:01.214Z,11.73
2022-11-16T06:09:05.718Z,10.93
2022-11-16T06:14:07.719Z,8.38
2022-11-16T06:19:09.337Z,8.63
2022-11-16T06:24:10.780Z,7.03
2022-11-16T06:29:12.192Z,6.13
2022-11-16T06:34:13.839Z,6.38
2022-11-16T06:39:15.770Z,5.07
2022-11-16T06:44:17.209Z,6.45
2022-11-16T06:49:18.637Z,4.35
2022-11-16T06:54:22.427Z,4.47
2022-11-16T06:59:23.861Z,4.45
2022-11-16T07:04:25.283Z,3.78
2022-11-16T07:09:30.982Z,4.53
2022-11-16T07:14:32.349Z,4.63
2022-11-16T07:19:33.781Z,4.35
2022-11-16T07:24:36.650Z,3.40
2022-11-16T07:29:38.281Z,3.55
2022-11-16T07:34:39.681Z,4.20
2022-11-16T07:39:41.361Z,5.15
2022-11-16T07:44:42.883Z,3.72
2022-11-16T07:49:45.462Z,3.33
2022-11-16T07:54:46.965Z,2.80
2022-11-16T07:59:49.713Z,3.85
2022-11-16T08:04:52.424Z,4.38
2022-11-16T08:09:54.260Z,4.55
2022-11-16T08:14:55.755Z,4.82
2022-11-16T08:19:57.434Z,4.82
2022-11-16T08:25:00.525Z,5.20
2022-11-16T08:30:04.835Z,5.60
2022-11-16T08:35:06.667Z,6.68
2022-11-16T08:40:08.537Z,5.65
2022-11-16T08:45:10.153Z,4.45
2022-11-16T08:50:11.530Z,6.32
2022-11-16T08:55:13.923Z,6.70
2022-11-16T09:00:15.904Z,6.47
2022-11-16T09:05:17.258Z,6.57
2022-11-16T09:10:22.894Z,6.22
2022-11-16T09:15:24.281Z,6.13
2022-11-16T09:20:26.369Z,6.50
2022-11-16T09:25:27.806Z,6.53
2022-11-16T09:30:29.169Z,4.75
2022-11-16T09:35:31.051Z,6.03
2022-11-16T09:40:41.994Z,5.95
2022-11-16T09:45:50.787Z,5.65
2022-11-16T09:51:08.093Z,4.90
2022-11-16T09:56:16.478Z,6.07
2022-11-16T10:01:34.997Z,3.97
2022-11-16T10:07:16.189Z,3.35
2022-11-16T10:12:43.653Z,3.38
2022-11-16T10:18:07.055Z,4.90
2022-11-16T10:23:41.851Z,3.22
2022-11-16T10:29:00.937Z,3.47
2022-11-16T10:39:25.608Z,2.95
2022-11-16T10:44:38.725Z,2.27
2022-11-16T10:49:49.195Z,2.42
2022-11-16T10:54:51.411Z,3.75
2022-11-16T10:59:59.503Z,2.78
2022-11-16T11:05:13.264Z,2.20
2022-11-16T11:10:30.720Z,2.30
2022-11-16T11:15:34.300Z,2.30
2022-11-16T11:20:39.088Z,2.70
2022-11-16T11:25:55.602Z,2.97
2022-11-16T11:31:09.201Z,2.90
2022-11-16T11:36:22.817Z,2.25
2022-11-16T11:41:24.425Z,2.60
2022-11-16T11:46:56.030Z,2.58
2022-11-16T11:51:56.275Z,2.53
2022-11-16T11:57:01.447Z,2.03
2022-11-16T12:02:38.013Z,3.08
2022-11-16T12:08:05.182Z,2.40
2022-11-16T12:13:12.797Z,2.80
2022-11-16T12:18:23.848Z,2.67
2022-11-16T12:23:51.603Z,2.53
2022-11-16T12:29:25.865Z,2.28
2022-11-16T12:35:05.056Z,3.05
2022-11-16T12:40:38.068Z,3.25
2022-11-16T12:45:58.019Z,3.13
2022-11-16T12:51:15.294Z,2.60
2022-11-16T12:56:29.326Z,2.50
2022-11-16T13:01:40.910Z,2.33
2022-11-16T13:06:51.899Z,3.20
2022-11-16T13:12:00.537Z,3.15
2022-11-16T13:17:03.975Z,1.83
2022-11-16T13:22:14.038Z,2.72
2022-11-16T13:27:34.438Z,1.58
2022-11-16T13:32:47.343Z,1.38
2022-11-16T13:37:50.374Z,1.30
2022-11-16T13:43:16.985Z,1.45
2022-11-16T13:48:21.567Z,1.80
2022-11-16T13:58:55.213Z,2.13
2022-11-16T14:04:35.372Z,1.65
2022-11-16T14:09:44.954Z,1.92
2022-11-16T14:15:17.109Z,2.63
2022-11-16T14:20:31.399Z,2.60
2022-11-16T14:25:40.466Z,1.95
2022-11-16T14:31:12.693Z,2.33
2022-11-16T14:36:15.072Z,1.65
2022-11-16T14:41:22.975Z,6.22
2022-11-16T14:46:32.895Z,4.43
2022-11-16T14:51:37.732Z,4.25
2022-11-16T14:56:55.831Z,2.75
2022-11-16T15:02:00.031Z,3.05
2022-11-16T15:07:03.639Z,3.90
2022-11-16T15:12:30.239Z,1.88
2022-11-16T15:17:33.586Z,2.17
2022-11-16T15:22:42.010Z,2.60
2022-11-16T15:27:43.662Z,1.90
2022-11-16T15:32:47.908Z,7.18
2022-11-16T15:38:03.314Z,7.97
2022-11-16T15:43:06.630Z,4.00
2022-11-16T15:48:17.037Z,7.30
2022-11-16T15:53:40.840Z,15.07
2022-11-16T15:58:42.767Z,10.25
2022-11-16T16:03:54.400Z,19.77
2022-11-16T16:09:06.230Z,9.55
2022-11-16T16:14:10.801Z,4.63
2022-11-16T16:19:34.401Z,8.48
2022-11-16T16:24:44.669Z,3.63
2022-11-16T16:29:48.378Z,4.40
2022-11-16T16:34:50.648Z,5.57
2022-11-16T16:39:52.101Z,3.65
2022-11-16T16:44:55.179Z,3.55
2022-11-16T16:49:59.317Z,4.45
2022-11-16T16:55:00.868Z,4.85
2022-11-16T17:00:02.615Z,4.07
2022-11-16T17:05:04.780Z,8.43
2022-11-16T17:10:07.038Z,23.70
2022-11-16T17:15:13.843Z,5.90
2022-11-16T17:20:18.990Z,8.23
2022-11-16T17:25:21.131Z,10.27
2022-11-16T17:30:24.204Z,5.70
2022-11-16T17:35:25.734Z,3.55
2022-11-16T17:40:28.978Z,4.95
2022-11-16T17:45:30.568Z,3.83
2022-11-16T17:50:31.933Z,4.22
2022-11-16T17:55:33.448Z,4.10
2022-11-16T18:00:34.988Z,4.65
2022-11-16T18:05:37.643Z,4.85
2022-11-16T18:10:40.502Z,3.95
2022-11-16T18:15:42.681Z,4.93
2022-11-16T18:20:44.872Z,6.28
2022-11-16T18:25:46.293Z,5.22
2022-11-16T18:30:47.892Z,5.78
2022-11-16T18:35:50.767Z,4.28
2022-11-16T18:41:11.234Z,4.70
2022-11-16T18:46:12.797Z,3.55
2022-11-16T18:51:16.329Z,3.95
2022-11-16T18:56:18.427Z,3.90
2022-11-16T19:01:22.986Z,4.85
2022-11-16T19:06:24.705Z,8.05
2022-11-16T19:11:27.890Z,6.30
2022-11-16T19:16:30.455Z,6.57
2022-11-16T19:21:32.050Z,11.20
2022-11-16T19:26:33.525Z,3.80
2022-11-16T19:31:34.956Z,3.25
2022-11-16T19:36:37.263Z,3.22
2022-11-16T19:41:38.762Z,4.55
2022-11-16T19:46:45.138Z,6.57
2022-11-16T19:51:46.549Z,16.67
2022-11-16T19:56:54.747Z,7.85
2022-11-16T20:01:56.594Z,4.20
2022-11-16T20:06:59.926Z,3.45
2022-11-16T20:12:01.364Z,3.28
2022-11-16T20:17:03.025Z,4.35
2022-11-16T20:22:05.527Z,4.30
2022-11-16T20:27:07.823Z,3.85
2022-11-16T20:32:09.320Z,4.75
2022-11-16T20:37:11.844Z,4.00
2022-11-16T20:42:13.894Z,5.00
2022-11-16T20:47:17.632Z,3.75
2022-11-16T20:52:21.501Z,3.58
2022-11-16T20:57:30.068Z,7.40
2022-11-16T21:02:31.558Z,4.55
2022-11-16T21:07:33.133Z,3.90
2022-11-16T21:12:55.056Z,5.57
2022-11-16T21:18:01.422Z,4.55
2022-11-16T21:23:04.230Z,6.63
2022-11-16T21:28:07.264Z,7.93
2022-11-16T21:33:11.641Z,3.72
2022-11-16T21:38:14.049Z,4.65
2022-11-16T21:43:16.582Z,7.97
2022-11-16T21:48:18.365Z,6.35
2022-11-16T21:53:19.953Z,5.60
2022-11-16T21:58:22.576Z,8.40
2022-11-16T22:03:30.008Z,5.20
2022-11-16T22:08:31.806Z,8.18
2022-11-16T22:13:34.221Z,12.27
2022-11-16T22:18:36.174Z,5.78
2022-11-16T22:23:38.119Z,3.58
2022-11-16T22:28:40.056Z,4.82
2022-11-16T22:33:42.136Z,3.33
2022-11-16T22:38:43.595Z,3.35
2022-11-16T22:43:45.114Z,3.33
2022-11-16T22:48:47.917Z,3.47
2022-11-16T22:53:57.583Z,3.53
2022-11-16T22:59:00.730Z,3.80
2022-11-16T23:04:02.916Z,3.70
2022-11-16T23:09:05.828Z,3.35
2022-11-16T23:14:29.291Z,3.00
2022-11-16T23:19:49.169Z,3.80
2022-11-16T23:25:08.942Z,3.05
2022-11-16T23:30:13.347Z,2.47
2022-11-16T23:35:15.037Z,3.42
2022-11-16T23:40:17.870Z,2.95
2022-11-16T23:45:20.519Z,3.95
2022-11-16T23:50:22.045Z,3.60
2022-11-16T23:55:26.837Z,2.85
